sensor_id;sensor_type;location;lat;lon;timestamp;P1;durP1;ratioP1;P2;durP2;ratioP2
17596;SDS011;8917;50.942;6.946;2022-08-18T00:00:02;19.02;;;17.25;;
17596;SDS011;8917;50.942;6.946;2022-08-18T00:02:30;20.00;;;17.92;;
17596;SDS011;8917;50.942;6.946;2022-08-18T00:04:57;20.15;;;18.08;;
17596;SDS011;8917;50.942;6.946;2022-08-18T00:07:26;20.10;;;18.13;;
17596;SDS011;8917;50.942;6.946;2022-08-18T00:09:53;21.27;;;18.77;;
17596;SDS011;8917;50.942;6.946;2022-08-18T00:12:23;20.33;;;18.42;;
17596;SDS011;8917;50.942;6.946;2022-08-18T00:14:52;19.92;;;17.95;;
17596;SDS011;8917;50.942;6.946;2022-08-18T00:17:20;19.35;;;17.45;;
17596;SDS011;8917;50.942;6.946;2022-08-18T00:19:47;19.25;;;17.25;;
17596;SDS011;8917;50.942;6.946;2022-08-18T00:22:16;19.85;;;18.00;;
17596;SDS011;8917;50.942;6.946;2022-08-18T00:24:43;20.30;;;18.17;;
17596;SDS011;8917;50.942;6.946;2022-08-18T00:27:11;20.88;;;18.77;;
17596;SDS011;8917;50.942;6.946;2022-08-18T00:29:38;22.67;;;20.38;;
17596;SDS011;8917;50.942;6.946;2022-08-18T00:32:17;23.27;;;20.90;;
17596;SDS011;8917;50.942;6.946;2022-08-18T00:34:45;26.23;;;20.48;;
17596;SDS011;8917;50.942;6.946;2022-08-18T00:37:12;25.05;;;22.42;;
17596;SDS011;8917;50.942;6.946;2022-08-18T00:39:40;22.90;;;20.60;;
17596;SDS011;8917;50.942;6.946;2022-08-18T00:42:11;23.98;;;21.58;;
17596;SDS011;8917;50.942;6.946;2022-08-18T00:44:38;22.25;;;20.05;;
17596;SDS011;8917;50.942;6.946;2022-08-18T00:47:05;23.58;;;21.13;;
17596;SDS011;8917;50.942;6.946;2022-08-18T00:49:34;22.75;;;20.45;;
17596;SDS011;8917;50.942;6.946;2022-08-18T00:52:02;24.98;;;22.38;;
17596;SDS011;8917;50.942;6.946;2022-08-18T00:54:30;25.15;;;22.35;;
17596;SDS011;8917;50.942;6.946;2022-08-18T00:56:59;23.77;;;21.30;;
17596;SDS011;8917;50.942;6.946;2022-08-18T00:59:28;22.20;;;20.00;;
17596;SDS011;8917;50.942;6.946;2022-08-18T01:01:59;21.08;;;19.00;;
17596;SDS011;8917;50.942;6.946;2022-08-18T01:04:28;20.70;;;18.52;;
17596;SDS011;8917;50.942;6.946;2022-08-18T01:07:00;20.20;;;18.17;;
17596;SDS011;8917;50.942;6.946;2022-08-18T01:09:28;20.92;;;18.48;;
17596;SDS011;8917;50.942;6.946;2022-08-18T01:11:55;20.48;;;18.33;;
17596;SDS011;8917;50.942;6.946;2022-08-18T01:14:22;21.45;;;19.27;;
17596;SDS011;8917;50.942;6.946;2022-08-18T01:16:50;21.52;;;19.23;;
17596;SDS011;8917;50.942;6.946;2022-08-18T01:19:35;20.40;;;17.92;;
17596;SDS011;8917;50.942;6.946;2022-08-18T01:22:24;21.45;;;19.20;;
17596;SDS011;8917;50.942;6.946;2022-08-18T01:24:54;21.90;;;19.50;;
17596;SDS011;8917;50.942;6.946;2022-08-18T01:27:40;21.90;;;19.20;;
17596;SDS011;8917;50.942;6.946;2022-08-18T01:30:08;21.42;;;19.15;;
17596;SDS011;8917;50.942;6.946;2022-08-18T01:32:37;21.65;;;19.45;;
17596;SDS011;8917;50.942;6.946;2022-08-18T01:35:05;24.08;;;21.52;;
17596;SDS011;8917;50.942;6.946;2022-08-18T01:37:34;22.95;;;20.67;;
17596;SDS011;8917;50.942;6.946;2022-08-18T01:40:03;25.90;;;22.98;;
17596;SDS011;8917;50.942;6.946;2022-08-18T01:42:31;25.92;;;23.23;;
17596;SDS011;8917;50.942;6.946;2022-08-18T01:44:58;26.27;;;23.60;;
17596;SDS011;8917;50.942;6.946;2022-08-18T01:47:27;25.45;;;22.88;;
17596;SDS011;8917;50.942;6.946;2022-08-18T01:49:55;27.95;;;25.02;;
17596;SDS011;8917;50.942;6.946;2022-08-18T01:52:24;30.08;;;25.85;;
17596;SDS011;8917;50.942;6.946;2022-08-18T01:54:53;27.48;;;24.52;;
17596;SDS011;8917;50.942;6.946;2022-08-18T01:57:23;28.30;;;24.77;;
17596;SDS011;8917;50.942;6.946;2022-08-18T01:59:50;28.55;;;25.52;;
17596;SDS011;8917;50.942;6.946;2022-08-18T02:02:19;29.33;;;26.27;;
17596;SDS011;8917;50.942;6.946;2022-08-18T02:04:49;28.20;;;25.17;;
17596;SDS011;8917;50.942;6.946;2022-08-18T02:07:16;29.20;;;26.23;;
17596;SDS011;8917;50.942;6.946;2022-08-18T02:09:44;28.80;;;25.50;;
17596;SDS011;8917;50.942;6.946;2022-08-18T02:12:11;28.50;;;25.50;;
17596;SDS011;8917;50.942;6.946;2022-08-18T02:14:40;27.05;;;24.17;;
17596;SDS011;8917;50.942;6.946;2022-08-18T02:17:08;28.50;;;25.40;;
17596;SDS011;8917;50.942;6.946;2022-08-18T02:19:37;26.58;;;23.85;;
17596;SDS011;8917;50.942;6.946;2022-08-18T02:22:05;24.98;;;22.42;;
17596;SDS011;8917;50.942;6.946;2022-08-18T02:24:33;25.30;;;22.70;;
17596;SDS011;8917;50.942;6.946;2022-08-18T02:27:00;26.80;;;23.90;;
17596;SDS011;8917;50.942;6.946;2022-08-18T02:29:27;26.60;;;23.77;;
17596;SDS011;8917;50.942;6.946;2022-08-18T02:31:56;26.02;;;23.45;;
17596;SDS011;8917;50.942;6.946;2022-08-18T02:34:23;31.60;;;28.35;;
17596;SDS011;8917;50.942;6.946;2022-08-18T02:36:53;30.13;;;26.95;;
17596;SDS011;8917;50.942;6.946;2022-08-18T02:39:21;30.63;;;27.33;;
17596;SDS011;8917;50.942;6.946;2022-08-18T02:41:48;29.25;;;26.23;;
17596;SDS011;8917;50.942;6.946;2022-08-18T02:44:15;31.35;;;28.10;;
17596;SDS011;8917;50.942;6.946;2022-08-18T02:46:42;29.27;;;26.30;;
17596;SDS011;8917;50.942;6.946;2022-08-18T02:49:11;29.95;;;26.77;;
17596;SDS011;8917;50.942;6.946;2022-08-18T02:51:39;31.92;;;28.67;;
17596;SDS011;8917;50.942;6.946;2022-08-18T02:54:06;30.92;;;27.73;;
17596;SDS011;8917;50.942;6.946;2022-08-18T02:56:36;30.88;;;27.30;;
17596;SDS011;8917;50.942;6.946;2022-08-18T02:59:05;29.63;;;26.55;;
17596;SDS011;8917;50.942;6.946;2022-08-18T03:01:33;35.10;;;30.02;;
17596;SDS011;8917;50.942;6.946;2022-08-18T03:04:01;33.45;;;27.52;;
17596;SDS011;8917;50.942;6.946;2022-08-18T03:06:32;32.58;;;28.65;;
17596;SDS011;8917;50.942;6.946;2022-08-18T03:09:00;32.17;;;28.65;;
17596;SDS011;8917;50.942;6.946;2022-08-18T03:11:28;30.15;;;26.77;;
17596;SDS011;8917;50.942;6.946;2022-08-18T03:13:58;31.08;;;27.83;;
17596;SDS011;8917;50.942;6.946;2022-08-18T03:16:26;33.33;;;29.83;;
17596;SDS011;8917;50.942;6.946;2022-08-18T03:18:57;31.63;;;28.20;;
17596;SDS011;8917;50.942;6.946;2022-08-18T03:21:25;33.85;;;29.00;;
17596;SDS011;8917;50.942;6.946;2022-08-18T03:23:54;31.77;;;28.30;;
17596;SDS011;8917;50.942;6.946;2022-08-18T03:26:23;31.27;;;28.08;;
17596;SDS011;8917;50.942;6.946;2022-08-18T03:28:52;31.10;;;27.98;;
17596;SDS011;8917;50.942;6.946;2022-08-18T03:31:20;31.95;;;28.45;;
17596;SDS011;8917;50.942;6.946;2022-08-18T03:33:48;30.50;;;27.30;;
17596;SDS011;8917;50.942;6.946;2022-08-18T03:36:16;29.75;;;26.48;;
17596;SDS011;8917;50.942;6.946;2022-08-18T03:38:44;29.83;;;26.67;;
17596;SDS011;8917;50.942;6.946;2022-08-18T03:41:15;31.35;;;25.42;;
17596;SDS011;8917;50.942;6.946;2022-08-18T03:43:42;30.15;;;27.10;;
17596;SDS011;8917;50.942;6.946;2022-08-18T03:46:11;29.42;;;26.33;;
17596;SDS011;8917;50.942;6.946;2022-08-18T03:48:39;29.35;;;26.13;;
17596;SDS011;8917;50.942;6.946;2022-08-18T03:51:12;29.75;;;26.55;;
17596;SDS011;8917;50.942;6.946;2022-08-18T03:53:40;30.70;;;27.38;;
17596;SDS011;8917;50.942;6.946;2022-08-18T03:56:07;30.30;;;27.10;;
17596;SDS011;8917;50.942;6.946;2022-08-18T03:58:41;28.55;;;25.63;;
17596;SDS011;8917;50.942;6.946;2022-08-18T04:01:10;29.45;;;26.35;;
17596;SDS011;8917;50.942;6.946;2022-08-18T04:03:40;31.23;;;27.90;;
17596;SDS011;8917;50.942;6.946;2022-08-18T04:06:07;35.53;;;31.58;;
17596;SDS011;8917;50.942;6.946;2022-08-18T04:08:36;33.17;;;29.10;;
17596;SDS011;8917;50.942;6.946;2022-08-18T04:11:03;32.38;;;29.00;;
17596;SDS011;8917;50.942;6.946;2022-08-18T04:13:31;34.13;;;29.83;;
17596;SDS011;8917;50.942;6.946;2022-08-18T04:16:03;33.30;;;29.75;;
17596;SDS011;8917;50.942;6.946;2022-08-18T04:18:31;35.03;;;31.13;;
17596;SDS011;8917;50.942;6.946;2022-08-18T04:21:00;33.97;;;29.95;;
17596;SDS011;8917;50.942;6.946;2022-08-18T04:23:27;35.38;;;30.58;;
17596;SDS011;8917;50.942;6.946;2022-08-18T04:25:55;40.05;;;33.50;;
17596;SDS011;8917;50.942;6.946;2022-08-18T04:28:23;41.00;;;34.25;;
17596;SDS011;8917;50.942;6.946;2022-08-18T04:30:50;40.88;;;33.83;;
17596;SDS011;8917;50.942;6.946;2022-08-18T04:33:19;40.28;;;33.20;;
17596;SDS011;8917;50.942;6.946;2022-08-18T04:35:46;38.55;;;34.13;;
17596;SDS011;8917;50.942;6.946;2022-08-18T04:38:13;39.65;;;32.42;;
17596;SDS011;8917;50.942;6.946;2022-08-18T04:40:41;38.53;;;32.35;;
17596;SDS011;8917;50.942;6.946;2022-08-18T04:43:08;41.00;;;34.20;;
17596;SDS011;8917;50.942;6.946;2022-08-18T04:45:39;50.22;;;37.58;;
17596;SDS011;8917;50.942;6.946;2022-08-18T04:48:06;51.20;;;39.47;;
17596;SDS011;8917;50.942;6.946;2022-08-18T04:50:36;48.38;;;38.20;;
17596;SDS011;8917;50.942;6.946;2022-08-18T04:53:04;46.95;;;37.25;;
17596;SDS011;8917;50.942;6.946;2022-08-18T04:55:49;56.38;;;42.25;;
17596;SDS011;8917;50.942;6.946;2022-08-18T04:58:17;51.28;;;38.10;;
17596;SDS011;8917;50.942;6.946;2022-08-18T05:00:44;56.80;;;39.78;;
17596;SDS011;8917;50.942;6.946;2022-08-18T05:03:12;58.88;;;42.55;;
17596;SDS011;8917;50.942;6.946;2022-08-18T05:05:41;57.97;;;43.17;;
17596;SDS011;8917;50.942;6.946;2022-08-18T05:08:08;56.40;;;41.85;;
17596;SDS011;8917;50.942;6.946;2022-08-18T05:10:35;59.78;;;41.75;;
17596;SDS011;8917;50.942;6.946;2022-08-18T05:13:04;59.35;;;42.33;;
17596;SDS011;8917;50.942;6.946;2022-08-18T05:15:31;61.83;;;41.95;;
17596;SDS011;8917;50.942;6.946;2022-08-18T05:17:58;61.72;;;43.40;;
17596;SDS011;8917;50.942;6.946;2022-08-18T05:20:26;62.60;;;43.17;;
17596;SDS011;8917;50.942;6.946;2022-08-18T05:22:55;64.07;;;42.20;;
17596;SDS011;8917;50.942;6.946;2022-08-18T05:25:23;60.47;;;39.60;;
17596;SDS011;8917;50.942;6.946;2022-08-18T05:27:50;66.38;;;43.47;;
17596;SDS011;8917;50.942;6.946;2022-08-18T05:30:17;62.45;;;42.85;;
17596;SDS011;8917;50.942;6.946;2022-08-18T05:32:44;63.28;;;43.20;;
17596;SDS011;8917;50.942;6.946;2022-08-18T05:35:12;68.55;;;45.25;;
17596;SDS011;8917;50.942;6.946;2022-08-18T05:37:43;61.40;;;45.53;;
17596;SDS011;8917;50.942;6.946;2022-08-18T05:40:15;66.75;;;44.85;;
17596;SDS011;8917;50.942;6.946;2022-08-18T05:42:42;68.88;;;48.05;;
17596;SDS011;8917;50.942;6.946;2022-08-18T05:45:10;64.60;;;44.30;;
17596;SDS011;8917;50.942;6.946;2022-08-18T05:47:38;63.90;;;44.30;;
17596;SDS011;8917;50.942;6.946;2022-08-18T05:50:07;68.38;;;46.60;;
17596;SDS011;8917;50.942;6.946;2022-08-18T05:52:36;64.10;;;45.08;;
17596;SDS011;8917;50.942;6.946;2022-08-18T05:55:05;66.13;;;44.28;;
17596;SDS011;8917;50.942;6.946;2022-08-18T05:57:52;70.53;;;48.60;;
17596;SDS011;8917;50.942;6.946;2022-08-18T06:00:21;66.97;;;46.72;;
17596;SDS011;8917;50.942;6.946;2022-08-18T06:02:51;64.80;;;44.78;;
17596;SDS011;8917;50.942;6.946;2022-08-18T06:05:23;64.25;;;41.13;;
17596;SDS011;8917;50.942;6.946;2022-08-18T06:07:52;67.18;;;43.45;;
17596;SDS011;8917;50.942;6.946;2022-08-18T06:10:20;61.33;;;42.30;;
17596;SDS011;8917;50.942;6.946;2022-08-18T06:12:49;66.60;;;45.67;;
17596;SDS011;8917;50.942;6.946;2022-08-18T06:15:21;69.32;;;45.08;;
17596;SDS011;8917;50.942;6.946;2022-08-18T06:17:53;63.92;;;43.40;;
17596;SDS011;8917;50.942;6.946;2022-08-18T06:20:27;68.25;;;44.22;;
17596;SDS011;8917;50.942;6.946;2022-08-18T06:22:58;64.45;;;44.15;;
17596;SDS011;8917;50.942;6.946;2022-08-18T06:25:31;68.85;;;46.25;;
17596;SDS011;8917;50.942;6.946;2022-08-18T06:28:00;62.35;;;43.45;;
17596;SDS011;8917;50.942;6.946;2022-08-18T06:30:35;63.65;;;43.10;;
17596;SDS011;8917;50.942;6.946;2022-08-18T06:33:09;62.83;;;42.40;;
17596;SDS011;8917;50.942;6.946;2022-08-18T06:35:41;63.28;;;42.30;;
17596;SDS011;8917;50.942;6.946;2022-08-18T06:38:14;68.43;;;43.33;;
17596;SDS011;8917;50.942;6.946;2022-08-18T06:41:02;67.70;;;45.50;;
17596;SDS011;8917;50.942;6.946;2022-08-18T06:43:30;66.05;;;42.83;;
17596;SDS011;8917;50.942;6.946;2022-08-18T06:45:59;70.40;;;44.13;;
17596;SDS011;8917;50.942;6.946;2022-08-18T06:48:29;71.10;;;44.40;;
17596;SDS011;8917;50.942;6.946;2022-08-18T06:50:59;66.18;;;41.55;;
17596;SDS011;8917;50.942;6.946;2022-08-18T06:56:19;64.22;;;40.40;;
17596;SDS011;8917;50.942;6.946;2022-08-18T06:58:46;60.33;;;38.70;;
17596;SDS011;8917;50.942;6.946;2022-08-18T07:01:15;67.22;;;40.70;;
17596;SDS011;8917;50.942;6.946;2022-08-18T07:03:45;66.05;;;42.47;;
17596;SDS011;8917;50.942;6.946;2022-08-18T07:06:24;65.13;;;43.95;;
17596;SDS011;8917;50.942;6.946;2022-08-18T07:08:53;59.08;;;39.60;;
17596;SDS011;8917;50.942;6.946;2022-08-18T07:11:22;63.40;;;42.20;;
17596;SDS011;8917;50.942;6.946;2022-08-18T07:13:50;56.75;;;39.53;;
17596;SDS011;8917;50.942;6.946;2022-08-18T07:16:22;63.38;;;42.28;;
17596;SDS011;8917;50.942;6.946;2022-08-18T07:18:49;66.57;;;40.75;;
17596;SDS011;8917;50.942;6.946;2022-08-18T07:21:23;60.10;;;40.60;;
17596;SDS011;8917;50.942;6.946;2022-08-18T07:23:57;52.17;;;35.72;;
17596;SDS011;8917;50.942;6.946;2022-08-18T07:26:25;46.38;;;33.28;;
17596;SDS011;8917;50.942;6.946;2022-08-18T07:28:52;42.28;;;30.00;;
17596;SDS011;8917;50.942;6.946;2022-08-18T07:31:24;41.03;;;31.17;;
17596;SDS011;8917;50.942;6.946;2022-08-18T07:33:56;42.13;;;33.35;;
17596;SDS011;8917;50.942;6.946;2022-08-18T07:36:25;49.25;;;33.53;;
17596;SDS011;8917;50.942;6.946;2022-08-18T07:38:55;42.55;;;31.10;;
17596;SDS011;8917;50.942;6.946;2022-08-18T07:41:24;50.45;;;40.20;;
17596;SDS011;8917;50.942;6.946;2022-08-18T07:43:57;52.22;;;40.58;;
17596;SDS011;8917;50.942;6.946;2022-08-18T07:46:29;41.03;;;30.10;;
17596;SDS011;8917;50.942;6.946;2022-08-18T07:48:57;39.97;;;30.67;;
17596;SDS011;8917;50.942;6.946;2022-08-18T07:51:27;42.92;;;33.45;;
17596;SDS011;8917;50.942;6.946;2022-08-18T07:53:56;38.33;;;29.50;;
17596;SDS011;8917;50.942;6.946;2022-08-18T07:56:29;41.22;;;29.77;;
17596;SDS011;8917;50.942;6.946;2022-08-18T07:59:00;38.00;;;29.40;;
17596;SDS011;8917;50.942;6.946;2022-08-18T08:01:32;36.17;;;29.77;;
17596;SDS011;8917;50.942;6.946;2022-08-18T08:04:13;40.90;;;30.27;;
17596;SDS011;8917;50.942;6.946;2022-08-18T08:06:42;40.92;;;29.65;;
17596;SDS011;8917;50.942;6.946;2022-08-18T08:09:11;35.80;;;27.85;;
17596;SDS011;8917;50.942;6.946;2022-08-18T08:11:45;44.40;;;30.77;;
17596;SDS011;8917;50.942;6.946;2022-08-18T08:14:17;35.45;;;29.63;;
17596;SDS011;8917;50.942;6.946;2022-08-18T08:16:49;38.20;;;29.20;;
17596;SDS011;8917;50.942;6.946;2022-08-18T08:19:24;43.13;;;29.83;;
17596;SDS011;8917;50.942;6.946;2022-08-18T08:21:55;42.13;;;30.85;;
17596;SDS011;8917;50.942;6.946;2022-08-18T08:24:25;41.33;;;29.08;;
17596;SDS011;8917;50.942;6.946;2022-08-18T08:26:55;34.90;;;27.85;;
17596;SDS011;8917;50.942;6.946;2022-08-18T08:29:27;37.65;;;28.10;;
17596;SDS011;8917;50.942;6.946;2022-08-18T08:31:59;38.22;;;29.13;;
17596;SDS011;8917;50.942;6.946;2022-08-18T08:34:33;35.40;;;27.95;;
17596;SDS011;8917;50.942;6.946;2022-08-18T08:37:04;36.35;;;28.33;;
17596;SDS011;8917;50.942;6.946;2022-08-18T08:39:35;47.25;;;36.78;;
17596;SDS011;8917;50.942;6.946;2022-08-18T08:42:05;35.55;;;28.48;;
17596;SDS011;8917;50.942;6.946;2022-08-18T08:44:35;35.08;;;27.35;;
17596;SDS011;8917;50.942;6.946;2022-08-18T08:47:09;33.22;;;27.45;;
17596;SDS011;8917;50.942;6.946;2022-08-18T08:49:39;33.78;;;26.75;;
17596;SDS011;8917;50.942;6.946;2022-08-18T08:52:10;35.03;;;26.90;;
17596;SDS011;8917;50.942;6.946;2022-08-18T08:54:41;37.25;;;28.20;;
17596;SDS011;8917;50.942;6.946;2022-08-18T08:57:09;33.95;;;27.63;;
17596;SDS011;8917;50.942;6.946;2022-08-18T08:59:37;32.20;;;25.45;;
17596;SDS011;8917;50.942;6.946;2022-08-18T09:02:14;31.17;;;26.88;;
17596;SDS011;8917;50.942;6.946;2022-08-18T09:04:49;33.28;;;26.73;;
17596;SDS011;8917;50.942;6.946;2022-08-18T09:07:22;33.42;;;26.23;;
17596;SDS011;8917;50.942;6.946;2022-08-18T09:10:00;29.70;;;24.88;;
17596;SDS011;8917;50.942;6.946;2022-08-18T09:12:39;31.63;;;26.15;;
17596;SDS011;8917;50.942;6.946;2022-08-18T09:15:20;35.40;;;27.52;;
17596;SDS011;8917;50.942;6.946;2022-08-18T09:18:03;31.60;;;26.45;;
17596;SDS011;8917;50.942;6.946;2022-08-18T09:20:39;33.53;;;26.15;;
17596;SDS011;8917;50.942;6.946;2022-08-18T09:23:12;29.35;;;25.38;;
17596;SDS011;8917;50.942;6.946;2022-08-18T09:25:44;31.38;;;24.00;;
17596;SDS011;8917;50.942;6.946;2022-08-18T09:28:13;28.98;;;24.02;;
17596;SDS011;8917;50.942;6.946;2022-08-18T09:30:42;26.85;;;23.35;;
17596;SDS011;8917;50.942;6.946;2022-08-18T09:33:18;29.90;;;25.52;;
17596;SDS011;8917;50.942;6.946;2022-08-18T09:35:56;29.48;;;23.02;;
17596;SDS011;8917;50.942;6.946;2022-08-18T09:38:31;28.13;;;24.70;;
17596;SDS011;8917;50.942;6.946;2022-08-18T09:41:18;28.15;;;23.33;;
17596;SDS011;8917;50.942;6.946;2022-08-18T09:44:00;27.33;;;24.20;;
17596;SDS011;8917;50.942;6.946;2022-08-18T09:46:51;31.80;;;23.92;;
17596;SDS011;8917;50.942;6.946;2022-08-18T09:49:41;31.25;;;23.40;;
17596;SDS011;8917;50.942;6.946;2022-08-18T09:55:05;26.90;;;22.50;;
17596;SDS011;8917;50.942;6.946;2022-08-18T09:57:33;26.70;;;21.90;;
17596;SDS011;8917;50.942;6.946;2022-08-18T10:03:02;30.65;;;22.88;;
17596;SDS011;8917;50.942;6.946;2022-08-18T10:05:32;26.83;;;21.25;;
17596;SDS011;8917;50.942;6.946;2022-08-18T10:10:44;26.42;;;23.13;;
17596;SDS011;8917;50.942;6.946;2022-08-18T10:13:16;29.65;;;24.50;;
17596;SDS011;8917;50.942;6.946;2022-08-18T10:15:47;25.38;;;22.25;;
17596;SDS011;8917;50.942;6.946;2022-08-18T10:18:22;29.70;;;23.33;;
17596;SDS011;8917;50.942;6.946;2022-08-18T10:20:55;27.33;;;22.05;;
17596;SDS011;8917;50.942;6.946;2022-08-18T10:28:52;28.33;;;23.17;;
17596;SDS011;8917;50.942;6.946;2022-08-18T10:31:19;30.73;;;23.88;;
17596;SDS011;8917;50.942;6.946;2022-08-18T10:33:54;30.35;;;25.50;;
17596;SDS011;8917;50.942;6.946;2022-08-18T10:36:43;25.80;;;22.95;;
17596;SDS011;8917;50.942;6.946;2022-08-18T10:39:11;28.60;;;24.60;;
17596;SDS011;8917;50.942;6.946;2022-08-18T10:41:45;30.42;;;23.88;;
17596;SDS011;8917;50.942;6.946;2022-08-18T10:44:15;27.30;;;21.05;;
17596;SDS011;8917;50.942;6.946;2022-08-18T10:46:42;24.52;;;20.48;;
17596;SDS011;8917;50.942;6.946;2022-08-18T10:49:18;24.35;;;21.10;;
17596;SDS011;8917;50.942;6.946;2022-08-18T10:51:58;26.75;;;22.25;;
17596;SDS011;8917;50.942;6.946;2022-08-18T10:54:32;28.20;;;25.23;;
17596;SDS011;8917;50.942;6.946;2022-08-18T10:57:06;25.98;;;23.17;;
17596;SDS011;8917;50.942;6.946;2022-08-18T10:59:35;28.90;;;24.63;;
17596;SDS011;8917;50.942;6.946;2022-08-18T11:02:08;26.38;;;23.38;;
17596;SDS011;8917;50.942;6.946;2022-08-18T11:04:40;25.92;;;22.88;;
17596;SDS011;8917;50.942;6.946;2022-08-18T11:07:10;26.75;;;23.58;;
17596;SDS011;8917;50.942;6.946;2022-08-18T11:09:40;28.73;;;24.83;;
17596;SDS011;8917;50.942;6.946;2022-08-18T11:12:10;24.45;;;21.90;;
17596;SDS011;8917;50.942;6.946;2022-08-18T11:14:50;26.20;;;20.95;;
17596;SDS011;8917;50.942;6.946;2022-08-18T11:17:26;24.33;;;21.58;;
17596;SDS011;8917;50.942;6.946;2022-08-18T11:19:55;24.73;;;21.80;;
17596;SDS011;8917;50.942;6.946;2022-08-18T11:22:27;23.40;;;20.65;;
17596;SDS011;8917;50.942;6.946;2022-08-18T11:24:55;25.52;;;20.58;;
17596;SDS011;8917;50.942;6.946;2022-08-18T11:27:23;27.75;;;23.67;;
17596;SDS011;8917;50.942;6.946;2022-08-18T11:29:51;23.23;;;20.63;;
17596;SDS011;8917;50.942;6.946;2022-08-18T11:32:20;22.58;;;20.17;;
17596;SDS011;8917;50.942;6.946;2022-08-18T11:34:49;23.08;;;20.60;;
17596;SDS011;8917;50.942;6.946;2022-08-18T11:37:22;21.95;;;19.10;;
17596;SDS011;8917;50.942;6.946;2022-08-18T11:39:53;25.38;;;21.95;;
17596;SDS011;8917;50.942;6.946;2022-08-18T11:42:25;21.60;;;19.33;;
17596;SDS011;8917;50.942;6.946;2022-08-18T11:44:53;23.83;;;21.05;;
17596;SDS011;8917;50.942;6.946;2022-08-18T11:47:21;28.70;;;22.50;;
17596;SDS011;8917;50.942;6.946;2022-08-18T11:49:51;25.38;;;22.83;;
17596;SDS011;8917;50.942;6.946;2022-08-18T11:52:21;23.55;;;21.05;;
17596;SDS011;8917;50.942;6.946;2022-08-18T11:54:49;22.58;;;20.20;;
17596;SDS011;8917;50.942;6.946;2022-08-18T11:57:36;23.77;;;21.23;;
17596;SDS011;8917;50.942;6.946;2022-08-18T12:02:59;24.73;;;21.33;;
17596;SDS011;8917;50.942;6.946;2022-08-18T12:05:26;24.50;;;21.77;;
17596;SDS011;8917;50.942;6.946;2022-08-18T12:07:53;22.08;;;19.85;;
17596;SDS011;8917;50.942;6.946;2022-08-18T12:10:21;24.63;;;21.60;;
17596;SDS011;8917;50.942;6.946;2022-08-18T12:12:51;24.42;;;21.70;;
17596;SDS011;8917;50.942;6.946;2022-08-18T12:15:26;21.35;;;19.20;;
17596;SDS011;8917;50.942;6.946;2022-08-18T12:17:55;25.65;;;22.98;;
17596;SDS011;8917;50.942;6.946;2022-08-18T12:20:22;26.55;;;22.25;;
17596;SDS011;8917;50.942;6.946;2022-08-18T12:22:49;24.65;;;20.15;;
17596;SDS011;8917;50.942;6.946;2022-08-18T12:25:18;23.15;;;20.80;;
17596;SDS011;8917;50.942;6.946;2022-08-18T12:27:45;23.55;;;20.58;;
17596;SDS011;8917;50.942;6.946;2022-08-18T12:30:14;26.15;;;20.30;;
17596;SDS011;8917;50.942;6.946;2022-08-18T12:32:43;23.42;;;20.95;;
17596;SDS011;8917;50.942;6.946;2022-08-18T12:35:11;25.17;;;19.33;;
17596;SDS011;8917;50.942;6.946;2022-08-18T12:37:40;23.45;;;20.17;;
17596;SDS011;8917;50.942;6.946;2022-08-18T12:40:08;26.48;;;19.88;;
17596;SDS011;8917;50.942;6.946;2022-08-18T12:42:36;26.17;;;19.40;;
17596;SDS011;8917;50.942;6.946;2022-08-18T12:45:04;25.42;;;19.77;;
17596;SDS011;8917;50.942;6.946;2022-08-18T12:47:34;21.88;;;18.70;;
17596;SDS011;8917;50.942;6.946;2022-08-18T12:50:04;25.55;;;19.85;;
17596;SDS011;8917;50.942;6.946;2022-08-18T12:52:32;22.55;;;18.20;;
17596;SDS011;8917;50.942;6.946;2022-08-18T12:54:59;21.23;;;18.83;;
17596;SDS011;8917;50.942;6.946;2022-08-18T12:57:26;22.40;;;19.40;;
17596;SDS011;8917;50.942;6.946;2022-08-18T12:59:54;22.10;;;19.52;;
17596;SDS011;8917;50.942;6.946;2022-08-18T13:02:21;20.60;;;18.20;;
17596;SDS011;8917;50.942;6.946;2022-08-18T13:04:49;21.17;;;19.08;;
17596;SDS011;8917;50.942;6.946;2022-08-18T13:07:17;21.88;;;19.40;;
17596;SDS011;8917;50.942;6.946;2022-08-18T13:09:44;20.60;;;17.98;;
17596;SDS011;8917;50.942;6.946;2022-08-18T13:12:11;18.85;;;16.88;;
17596;SDS011;8917;50.942;6.946;2022-08-18T13:14:40;17.67;;;15.75;;
17596;SDS011;8917;50.942;6.946;2022-08-18T13:17:07;19.90;;;17.17;;
17596;SDS011;8917;50.942;6.946;2022-08-18T13:19:35;19.20;;;17.30;;
17596;SDS011;8917;50.942;6.946;2022-08-18T13:22:04;19.85;;;17.95;;
17596;SDS011;8917;50.942;6.946;2022-08-18T13:24:31;17.65;;;15.82;;
17596;SDS011;8917;50.942;6.946;2022-08-18T13:26:58;18.25;;;16.13;;
17596;SDS011;8917;50.942;6.946;2022-08-18T13:29:26;16.33;;;14.70;;
17596;SDS011;8917;50.942;6.946;2022-08-18T13:31:53;14.57;;;13.18;;
17596;SDS011;8917;50.942;6.946;2022-08-18T13:34:24;15.82;;;14.23;;
17596;SDS011;8917;50.942;6.946;2022-08-18T13:36:55;14.65;;;13.35;;
17596;SDS011;8917;50.942;6.946;2022-08-18T13:39:24;14.68;;;13.38;;
17596;SDS011;8917;50.942;6.946;2022-08-18T13:41:52;14.20;;;12.80;;
17596;SDS011;8917;50.942;6.946;2022-08-18T13:44:20;13.82;;;12.48;;
17596;SDS011;8917;50.942;6.946;2022-08-18T13:46:48;16.17;;;12.45;;
17596;SDS011;8917;50.942;6.946;2022-08-18T13:49:17;12.15;;;10.68;;
17596;SDS011;8917;50.942;6.946;2022-08-18T13:51:45;12.60;;;11.40;;
17596;SDS011;8917;50.942;6.946;2022-08-18T13:54:15;12.32;;;11.13;;
17596;SDS011;8917;50.942;6.946;2022-08-18T13:56:45;12.77;;;11.48;;
17596;SDS011;8917;50.942;6.946;2022-08-18T13:59:12;12.20;;;11.00;;
17596;SDS011;8917;50.942;6.946;2022-08-18T14:01:40;12.68;;;11.23;;
17596;SDS011;8917;50.942;6.946;2022-08-18T14:04:09;12.85;;;11.63;;
17596;SDS011;8917;50.942;6.946;2022-08-18T14:06:37;12.95;;;11.50;;
17596;SDS011;8917;50.942;6.946;2022-08-18T14:09:04;14.13;;;11.40;;
17596;SDS011;8917;50.942;6.946;2022-08-18T14:11:32;12.82;;;11.50;;
17596;SDS011;8917;50.942;6.946;2022-08-18T14:14:02;11.18;;;10.07;;
17596;SDS011;8917;50.942;6.946;2022-08-18T14:16:30;12.98;;;11.07;;
17596;SDS011;8917;50.942;6.946;2022-08-18T14:18:58;14.68;;;11.23;;
17596;SDS011;8917;50.942;6.946;2022-08-18T14:21:43;12.55;;;11.45;;
17596;SDS011;8917;50.942;6.946;2022-08-18T14:24:29;13.35;;;10.98;;
17596;SDS011;8917;50.942;6.946;2022-08-18T14:27:14;12.40;;;11.20;;
17596;SDS011;8917;50.942;6.946;2022-08-18T14:29:42;14.13;;;12.07;;
17596;SDS011;8917;50.942;6.946;2022-08-18T14:32:12;12.18;;;10.98;;
17596;SDS011;8917;50.942;6.946;2022-08-18T14:34:40;13.15;;;11.68;;
17596;SDS011;8917;50.942;6.946;2022-08-18T14:37:09;14.90;;;13.13;;
17596;SDS011;8917;50.942;6.946;2022-08-18T14:39:36;13.95;;;12.55;;
17596;SDS011;8917;50.942;6.946;2022-08-18T14:42:07;11.85;;;10.60;;
17596;SDS011;8917;50.942;6.946;2022-08-18T14:44:34;10.80;;;9.77;;
17596;SDS011;8917;50.942;6.946;2022-08-18T14:47:03;11.88;;;10.73;;
17596;SDS011;8917;50.942;6.946;2022-08-18T14:49:30;11.18;;;10.13;;
17596;SDS011;8917;50.942;6.946;2022-08-18T14:51:57;11.07;;;9.93;;
17596;SDS011;8917;50.942;6.946;2022-08-18T14:54:24;10.93;;;9.80;;
17596;SDS011;8917;50.942;6.946;2022-08-18T14:56:52;11.00;;;9.90;;
17596;SDS011;8917;50.942;6.946;2022-08-18T14:59:19;10.55;;;9.48;;
17596;SDS011;8917;50.942;6.946;2022-08-18T15:01:47;10.65;;;9.65;;
17596;SDS011;8917;50.942;6.946;2022-08-18T15:04:16;10.75;;;8.75;;
17596;SDS011;8917;50.942;6.946;2022-08-18T15:06:43;10.65;;;9.65;;
17596;SDS011;8917;50.942;6.946;2022-08-18T15:09:10;11.48;;;10.38;;
17596;SDS011;8917;50.942;6.946;2022-08-18T15:11:38;10.93;;;9.88;;